Time;durP1;ratioP1;P1;durP2;ratioP2;P2;SDS_P1;SDS_P2;PMS_P1;PMS_P2;Temp;Humidity;BMP_temperature;BMP_pressure;BME280_temperature;BME280_humidity;BME280_pressure;Samples;Min_cycle;Max_cycle;Signal;HPM_P1;HPM_P2
2023/12/12 00:02:02;;;;;;;10.17;7.30;;;;;;;;;;5010132;28;20440;-52
2023/12/12 00:04:30;;;;;;;18.60;8.67;;;;;;;;;;5010153;28;20555;-52
2023/12/12 00:06:57;;;;;;;49.90;14.60;;;;;;;;;;5010197;28;20472;-55
2023/12/12 00:09:26;;;;;;;54.57;10.50;;;;;;;;;;5009970;28;20453;-54
2023/12/12 00:11:54;;;;;;;34.83;12.30;;;;;;;;;;5010742;28;20448;-52
2023/12/12 00:14:21;;;;;;;22.07;6.03;;;;;;;;;;5010206;28;20458;-55
2023/12/12 00:16:49;;;;;;;22.47;6.17;;;;;;;;;;5010472;28;20564;-53
2023/12/12 00:19:16;;;;;;;22.53;8.07;;;;;;;;;;5009885;28;20448;-52
2023/12/12 00:21:43;;;;;;;45.30;9.50;;;;;;;;;;5010495;28;20802;-51
2023/12/12 00:24:11;;;;;;;34.23;9.90;;;;;;;;;;5009708;28;20488;-52
2023/12/12 00:29:45;;;;;;;19.67;8.40;;;;;;;;;;5010133;28;20957;-52
2023/12/12 00:32:12;;;;;;;25.93;8.80;;;;;;;;;;5009663;28;20774;-54
2023/12/12 00:34:40;;;;;;;21.00;8.07;;;;;;;;;;5009880;28;20448;-53
2023/12/12 00:37:07;;;;;;;23.77;7.60;;;;;;;;;;5009536;28;20496;-52
2023/12/12 00:39:38;;;;;;;22.47;7.90;;;;;;;;;;5012342;28;20479;-56
2023/12/12 00:42:05;;;;;;;15.43;9.00;;;;;;;;;;5013145;28;20487;-52
2023/12/12 00:44:33;;;;;;;42.43;9.73;;;;;;;;;;5013550;28;20632;-55
2023/12/12 00:47:01;;;;;;;18.77;7.60;;;;;;;;;;5013672;28;20469;-52
2023/12/12 00:49:29;;;;;;;45.93;9.50;;;;;;;;;;5011699;28;20518;-52
2023/12/12 00:51:56;;;;;;;13.37;7.30;;;;;;;;;;5013563;28;20454;-52
2023/12/12 00:54:23;;;;;;;29.33;6.90;;;;;;;;;;5012999;28;20448;-53
2023/12/12 00:56:50;;;;;;;14.93;6.57;;;;;;;;;;5012906;28;20477;-52
2023/12/12 00:59:18;;;;;;;16.83;7.93;;;;;;;;;;5011798;28;20515;-55
2023/12/12 01:01:45;;;;;;;19.47;5.90;;;;;;;;;;5012519;28;20876;-52
2023/12/12 01:04:14;;;;;;;22.90;6.10;;;;;;;;;;5011690;28;20449;-52
2023/12/12 01:06:41;;;;;;;30.57;6.90;;;;;;;;;;5012050;28;20469;-52
2023/12/12 01:09:08;;;;;;;8.23;5.23;;;;;;;;;;5011445;28;20444;-52
2023/12/12 01:11:36;;;;;;;9.17;7.27;;;;;;;;;;5011836;28;20453;-54
2023/12/12 01:14:03;;;;;;;27.63;8.63;;;;;;;;;;5012127;28;20445;-52
2023/12/12 01:16:30;;;;;;;19.50;8.47;;;;;;;;;;5012736;28;20519;-52
2023/12/12 01:18:58;;;;;;;19.63;9.20;;;;;;;;;;5012462;28;20455;-52
2023/12/12 01:21:26;;;;;;;24.33;10.17;;;;;;;;;;5013091;28;20487;-52
2023/12/12 01:23:54;;;;;;;17.07;7.90;;;;;;;;;;5012986;28;20948;-53
2023/12/12 01:26:22;;;;;;;30.97;7.33;;;;;;;;;;5012733;28;20494;-52
2023/12/12 01:28:50;;;;;;;17.63;6.43;;;;;;;;;;5012689;28;20944;-52
2023/12/12 01:31:18;;;;;;;13.13;5.60;;;;;;;;;;5012526;28;20507;-52
2023/12/12 01:33:45;;;;;;;15.03;5.23;;;;;;;;;;5012920;28;20452;-52
2023/12/12 01:36:13;;;;;;;12.43;4.67;;;;;;;;;;5012136;28;20465;-53
2023/12/12 01:38:41;;;;;;;6.37;4.37;;;;;;;;;;5012360;28;20450;-53
2023/12/12 01:41:09;;;;;;;39.00;8.40;;;;;;;;;;5012538;28;20445;-54
2023/12/12 01:43:36;;;;;;;17.83;7.27;;;;;;;;;;5012319;28;20469;-52
2023/12/12 01:46:06;;;;;;;14.67;7.70;;;;;;;;;;5011779;28;20571;-55
2023/12/12 01:48:34;;;;;;;53.60;11.33;;;;;;;;;;5012282;28;20449;-51
2023/12/12 01:51:01;;;;;;;66.87;12.57;;;;;;;;;;5012038;28;20449;-54
2023/12/12 01:53:30;;;;;;;35.03;9.53;;;;;;;;;;5004778;28;20441;-52
2023/12/12 01:55:59;;;;;;;79.43;14.33;;;;;;;;;;5033414;22;20541;-52
2023/12/12 01:58:27;;;;;;;22.77;8.60;;;;;;;;;;5030962;28;20456;-52
2023/12/12 02:00:54;;;;;;;9.77;5.90;;;;;;;;;;5030712;28;20983;-53
2023/12/12 02:03:22;;;;;;;5.37;4.47;;;;;;;;;;5031302;28;20497;-52
2023/12/12 02:05:50;;;;;;;10.00;6.67;;;;;;;;;;5024729;28;20490;-52
2023/12/12 02:08:18;;;;;;;8.43;6.17;;;;;;;;;;5011044;28;20461;-52
2023/12/12 02:10:46;;;;;;;15.40;9.23;;;;;;;;;;5011791;28;20455;-53
2023/12/12 02:13:15;;;;;;;24.90;9.13;;;;;;;;;;5011691;28;20536;-53
2023/12/12 02:15:42;;;;;;;14.33;9.90;;;;;;;;;;5011362;28;20464;-53
2023/12/12 02:18:10;;;;;;;13.40;7.93;;;;;;;;;;5011216;28;20453;-53
2023/12/12 02:20:37;;;;;;;10.00;7.70;;;;;;;;;;5011357;28;20453;-53
2023/12/12 02:23:05;;;;;;;12.83;8.50;;;;;;;;;;5011321;28;20457;-52
2023/12/12 02:25:33;;;;;;;48.23;13.53;;;;;;;;;;5011309;28;20496;-53
2023/12/12 02:28:01;;;;;;;13.43;8.47;;;;;;;;;;5011230;28;20449;-55
2023/12/12 02:30:28;;;;;;;19.47;8.43;;;;;;;;;;5010735;28;20459;-53
2023/12/12 02:32:54;;;;;;;51.03;11.83;;;;;;;;;;5010893;28;20515;-53
2023/12/12 02:35:22;;;;;;;15.13;7.40;;;;;;;;;;5010525;28;20441;-53
2023/12/12 02:37:49;;;;;;;21.83;10.27;;;;;;;;;;5010876;28;20449;-52
2023/12/12 02:40:18;;;;;;;8.90;6.90;;;;;;;;;;5009599;28;20478;-52
2023/12/12 02:42:46;;;;;;;12.47;7.63;;;;;;;;;;5010798;28;20451;-53
2023/12/12 02:45:13;;;;;;;6.60;5.57;;;;;;;;;;5010652;28;20480;-53
2023/12/12 02:47:41;;;;;;;11.70;6.10;;;;;;;;;;5010730;28;20457;-53
2023/12/12 02:50:08;;;;;;;8.23;6.40;;;;;;;;;;5010635;28;20872;-53
2023/12/12 02:52:36;;;;;;;7.70;6.37;;;;;;;;;;5010747;28;20511;-52
2023/12/12 02:55:06;;;;;;;39.70;13.33;;;;;;;;;;5010757;28;20445;-52
2023/12/12 02:57:35;;;;;;;108.77;19.17;;;;;;;;;;5010576;28;20556;-52
2023/12/12 03:00:03;;;;;;;125.23;23.37;;;;;;;;;;5010410;28;20966;-54
2023/12/12 03:02:31;;;;;;;42.73;12.40;;;;;;;;;;5010703;28;20448;-54
2023/12/12 03:04:59;;;;;;;10.10;7.50;;;;;;;;;;5010444;28;20491;-52
2023/12/12 03:07:26;;;;;;;8.43;6.60;;;;;;;;;;5009143;28;20469;-52
2023/12/12 03:09:54;;;;;;;16.87;8.73;;;;;;;;;;5009913;28;20458;-53
2023/12/12 03:12:21;;;;;;;23.43;10.80;;;;;;;;;;5009382;28;20798;-52
2023/12/12 03:14:51;;;;;;;49.83;12.60;;;;;;;;;;5010298;28;20453;-52
2023/12/12 03:17:18;;;;;;;57.73;12.60;;;;;;;;;;5009016;28;21006;-52
2023/12/12 03:19:45;;;;;;;89.00;15.10;;;;;;;;;;5009698;28;20439;-53
2023/12/12 03:22:13;;;;;;;41.03;15.00;;;;;;;;;;5009898;28;20992;-53
2023/12/12 03:24:40;;;;;;;157.20;23.63;;;;;;;;;;5010011;28;20984;-53
2023/12/12 03:27:08;;;;;;;26.50;10.70;;;;;;;;;;5009952;28;20488;-53
2023/12/12 03:29:35;;;;;;;13.10;7.27;;;;;;;;;;5010313;28;20471;-53
2023/12/12 03:32:04;;;;;;;7.70;6.70;;;;;;;;;;5009844;28;20540;-52
2023/12/12 03:34:32;;;;;;;7.00;5.87;;;;;;;;;;5010155;28;20459;-52
2023/12/12 03:36:59;;;;;;;6.70;5.60;;;;;;;;;;5009556;28;20815;-52
2023/12/12 03:39:26;;;;;;;6.17;5.27;;;;;;;;;;5009387;28;20494;-53
2023/12/12 03:41:54;;;;;;;5.60;4.73;;;;;;;;;;5010158;28;20454;-52
2023/12/12 03:44:21;;;;;;;6.47;5.57;;;;;;;;;;5009985;28;20460;-53
2023/12/12 03:46:48;;;;;;;6.57;4.73;;;;;;;;;;5009836;28;20570;-53
2023/12/12 03:49:17;;;;;;;10.73;8.07;;;;;;;;;;5009509;28;20441;-53
2023/12/12 03:51:45;;;;;;;11.10;9.23;;;;;;;;;;5009885;28;20449;-53
2023/12/12 03:54:12;;;;;;;10.83;8.23;;;;;;;;;;5009971;28;20461;-52
2023/12/12 03:56:39;;;;;;;9.10;7.60;;;;;;;;;;5009972;28;20889;-53
2023/12/12 03:59:06;;;;;;;12.80;7.93;;;;;;;;;;5009462;28;20441;-53
2023/12/12 04:01:34;;;;;;;22.00;9.37;;;;;;;;;;5010013;28;20449;-53
2023/12/12 04:04:01;;;;;;;11.87;8.13;;;;;;;;;;5009788;28;20497;-52
2023/12/12 04:06:30;;;;;;;12.70;8.50;;;;;;;;;;5009208;28;20491;-53
2023/12/12 04:08:57;;;;;;;13.10;6.67;;;;;;;;;;5009899;28;20519;-53
2023/12/12 04:11:24;;;;;;;8.50;6.40;;;;;;;;;;5009721;28;20454;-53
2023/12/12 04:13:52;;;;;;;7.80;6.57;;;;;;;;;;5011637;28;20927;-53
2023/12/12 04:16:19;;;;;;;7.40;6.23;;;;;;;;;;5012433;28;20945;-53
2023/12/12 04:18:46;;;;;;;7.37;6.23;;;;;;;;;;5013463;28;20449;-53
2023/12/12 04:21:14;;;;;;;9.70;7.03;;;;;;;;;;5013229;28;20828;-53
2023/12/12 04:23:43;;;;;;;9.90;7.40;;;;;;;;;;5013591;28;20460;-52
2023/12/12 04:26:11;;;;;;;10.83;6.97;;;;;;;;;;5013133;28;20573;-52
2023/12/12 04:28:38;;;;;;;11.30;7.47;;;;;;;;;;5012998;28;21018;-53
2023/12/12 04:31:06;;;;;;;8.13;6.67;;;;;;;;;;5013305;28;20481;-53
2023/12/12 04:33:33;;;;;;;8.23;6.30;;;;;;;;;;5011235;28;20460;-53
2023/12/12 04:36:01;;;;;;;7.97;6.07;;;;;;;;;;5013084;28;20469;-53
2023/12/12 04:38:28;;;;;;;31.80;6.97;;;;;;;;;;5011786;28;20955;-52
2023/12/12 04:40:57;;;;;;;14.27;7.43;;;;;;;;;;5013047;28;20456;-53
2023/12/12 04:43:25;;;;;;;13.63;7.60;;;;;;;;;;5012905;28;20444;-53
2023/12/12 04:45:52;;;;;;;21.07;7.23;;;;;;;;;;5013018;28;20535;-53
2023/12/12 04:48:19;;;;;;;54.00;13.77;;;;;;;;;;5012823;28;21173;-54
2023/12/12 04:50:46;;;;;;;18.83;8.93;;;;;;;;;;5012937;28;20448;-53
2023/12/12 04:53:14;;;;;;;37.77;12.10;;;;;;;;;;5012621;28;20915;-53
2023/12/12 04:55:41;;;;;;;58.37;14.60;;;;;;;;;;5013006;28;20472;-53
2023/12/12 04:58:10;;;;;;;11.93;7.67;;;;;;;;;;5012703;28;20460;-52
2023/12/12 05:00:37;;;;;;;12.40;8.03;;;;;;;;;;5011704;28;20497;-53
2023/12/12 05:03:05;;;;;;;11.90;8.13;;;;;;;;;;5016488;28;20453;-53
2023/12/12 05:05:32;;;;;;;22.97;8.70;;;;;;;;;;5012261;28;20477;-53
2023/12/12 05:07:59;;;;;;;16.13;7.50;;;;;;;;;;5011623;28;20548;-52
2023/12/12 05:10:27;;;;;;;24.33;10.40;;;;;;;;;;5011967;28;20452;-53
2023/12/12 05:12:54;;;;;;;31.13;11.47;;;;;;;;;;5013307;28;20448;-54
2023/12/12 05:15:23;;;;;;;28.43;11.30;;;;;;;;;;5011594;28;20441;-53
2023/12/12 05:17:50;;;;;;;33.13;13.63;;;;;;;;;;5010794;28;20445;-53
2023/12/12 05:20:18;;;;;;;13.40;7.10;;;;;;;;;;5009792;28;20448;-53
2023/12/12 05:22:45;;;;;;;8.03;5.93;;;;;;;;;;5011340;28;20453;-53
2023/12/12 05:25:12;;;;;;;11.70;4.93;;;;;;;;;;5010457;28;20505;-52
2023/12/12 05:27:40;;;;;;;9.03;4.90;;;;;;;;;;5010535;28;20484;-53
2023/12/12 05:30:08;;;;;;;44.63;14.07;;;;;;;;;;5010817;28;20514;-53
2023/12/12 05:32:36;;;;;;;30.10;12.90;;;;;;;;;;5012390;28;20538;-52
2023/12/12 05:35:04;;;;;;;48.97;16.07;;;;;;;;;;5011490;28;20448;-53
2023/12/12 05:37:31;;;;;;;47.47;16.10;;;;;;;;;;5011574;28;20457;-52
2023/12/12 05:39:59;;;;;;;35.80;12.80;;;;;;;;;;5011855;28;20537;-52
2023/12/12 05:42:26;;;;;;;16.17;10.43;;;;;;;;;;5011628;28;21006;-53
2023/12/12 05:44:54;;;;;;;24.87;13.43;;;;;;;;;;5011897;28;20524;-53
2023/12/12 05:47:21;;;;;;;43.83;14.00;;;;;;;;;;5011550;28;20492;-53
2023/12/12 05:49:50;;;;;;;38.50;14.80;;;;;;;;;;5011321;28;20433;-53
2023/12/12 05:52:17;;;;;;;29.70;16.87;;;;;;;;;;5006940;28;20513;-53
2023/12/12 05:54:46;;;;;;;18.30;11.50;;;;;;;;;;5011472;28;20452;-53
2023/12/12 05:57:13;;;;;;;20.63;12.40;;;;;;;;;;5009965;28;20471;-53
2023/12/12 05:59:40;;;;;;;48.77;14.07;;;;;;;;;;5010142;28;20460;-53
2023/12/12 06:02:08;;;;;;;56.33;14.27;;;;;;;;;;5006064;28;20878;-52
2023/12/12 06:04:38;;;;;;;23.73;12.10;;;;;;;;;;5008962;28;20456;-52
2023/12/12 06:07:07;;;;;;;22.33;10.70;;;;;;;;;;5010055;28;20481;-53
2023/12/12 06:09:34;;;;;;;25.33;7.27;;;;;;;;;;5010307;28;20468;-52
2023/12/12 06:12:02;;;;;;;16.53;7.50;;;;;;;;;;5011133;28;20451;-52
2023/12/12 06:14:29;;;;;;;13.63;7.83;;;;;;;;;;5011002;28;20448;-53
2023/12/12 06:16:56;;;;;;;17.80;8.63;;;;;;;;;;5009374;28;20467;-52
2023/12/12 06:19:24;;;;;;;22.00;8.80;;;;;;;;;;5009691;28;20579;-52
2023/12/12 06:21:53;;;;;;;12.33;6.43;;;;;;;;;;5010042;28;20461;-53
2023/12/12 06:24:22;;;;;;;19.87;6.10;;;;;;;;;;5008284;28;20809;-53
2023/12/12 06:26:50;;;;;;;16.33;6.97;;;;;;;;;;5007935;28;20506;-53
2023/12/12 06:29:18;;;;;;;39.63;10.37;;;;;;;;;;5009132;28;20882;-52
2023/12/12 06:31:45;;;;;;;44.33;14.43;;;;;;;;;;5010533;28;20475;-53
2023/12/12 06:34:12;;;;;;;42.00;13.53;;;;;;;;;;5009026;28;20457;-53
2023/12/12 06:36:40;;;;;;;68.53;15.30;;;;;;;;;;5009788;28;20468;-52
2023/12/12 06:39:09;;;;;;;52.27;13.87;;;;;;;;;;5010197;28;20509;-52
2023/12/12 06:41:38;;;;;;;19.53;10.97;;;;;;;;;;5010317;28;20514;-52
2023/12/12 06:44:06;;;;;;;23.27;11.77;;;;;;;;;;5009337;28;20452;-53
2023/12/12 06:46:33;;;;;;;21.40;11.00;;;;;;;;;;5008828;28;20587;-53
2023/12/12 06:49:00;;;;;;;32.30;11.80;;;;;;;;;;5009245;28;20503;-54
2023/12/12 06:51:28;;;;;;;19.53;10.53;;;;;;;;;;5008451;28;20526;-52
2023/12/12 06:53:58;;;;;;;27.03;11.90;;;;;;;;;;5009815;28;20464;-52
2023/12/12 06:56:25;;;;;;;19.13;11.47;;;;;;;;;;5009012;28;20495;-53
2023/12/12 06:58:54;;;;;;;17.40;11.20;;;;;;;;;;5008016;28;20443;-53
2023/12/12 07:01:21;;;;;;;19.40;11.50;;;;;;;;;;5008874;28;20461;-53
2023/12/12 07:03:49;;;;;;;15.10;10.13;;;;;;;;;;5008995;28;20456;-53
2023/12/12 07:06:18;;;;;;;40.33;10.30;;;;;;;;;;5009682;28;20835;-53
2023/12/12 07:08:46;;;;;;;21.57;8.17;;;;;;;;;;5005258;28;20539;-53
2023/12/12 07:11:13;;;;;;;17.73;10.40;;;;;;;;;;5009385;28;20456;-53
2023/12/12 07:13:40;;;;;;;16.33;11.77;;;;;;;;;;5009476;28;20500;-52
2023/12/12 07:16:10;;;;;;;27.53;11.03;;;;;;;;;;5008517;28;20467;-53
2023/12/12 07:18:38;;;;;;;18.23;10.17;;;;;;;;;;5008146;28;20537;-53
2023/12/12 07:21:05;;;;;;;15.23;9.93;;;;;;;;;;5008155;28;20540;-52
2023/12/12 07:23:33;;;;;;;16.00;11.57;;;;;;;;;;5002597;28;20541;-52
2023/12/12 07:26:01;;;;;;;26.90;15.53;;;;;;;;;;5008369;28;20470;-53
2023/12/12 07:28:28;;;;;;;20.63;16.07;;;;;;;;;;5000816;28;20489;-53
2023/12/12 07:30:55;;;;;;;40.37;14.50;;;;;;;;;;5008686;28;20457;-53
2023/12/12 07:33:24;;;;;;;45.63;11.07;;;;;;;;;;5009323;28;20464;-53
2023/12/12 07:35:51;;;;;;;23.60;7.90;;;;;;;;;;5007982;28;20562;-53
2023/12/12 07:38:19;;;;;;;20.00;6.50;;;;;;;;;;5008941;28;20500;-53
2023/12/12 07:40:46;;;;;;;11.50;4.50;;;;;;;;;;5008648;28;20996;-52
2023/12/12 07:43:13;;;;;;;11.47;5.37;;;;;;;;;;5008745;28;20453;-53
2023/12/12 07:45:41;;;;;;;8.13;5.60;;;;;;;;;;5004657;28;20830;-53
2023/12/12 07:48:08;;;;;;;16.13;8.47;;;;;;;;;;5011263;28;20475;-53
2023/12/12 07:50:37;;;;;;;25.83;9.27;;;;;;;;;;5012910;28;21047;-55
2023/12/12 07:53:05;;;;;;;37.33;8.10;;;;;;;;;;5011740;28;20468;-52
2023/12/12 08:03:43;;;;;;;32.97;9.40;;;;;;;;;;5087189;27;20568;-54
2023/12/12 08:06:11;;;;;;;63.73;13.60;;;;;;;;;;5086750;28;20474;-53
2023/12/12 08:08:39;;;;;;;42.33;12.77;;;;;;;;;;5083674;28;20506;-52
2023/12/12 08:11:06;;;;;;;48.47;11.03;;;;;;;;;;5084412;28;20459;-53
2023/12/12 08:13:33;;;;;;;63.20;12.40;;;;;;;;;;5087125;28;20909;-53
2023/12/12 08:16:01;;;;;;;182.67;25.77;;;;;;;;;;5080590;28;20527;-53
2023/12/12 08:18:28;;;;;;;94.07;19.90;;;;;;;;;;5073951;28;20811;-56
2023/12/12 08:20:57;;;;;;;46.87;17.70;;;;;;;;;;5078322;28;20446;-55
2023/12/12 08:23:24;;;;;;;73.60;21.90;;;;;;;;;;5072885;28;20455;-53
2023/12/12 08:25:52;;;;;;;61.83;17.80;;;;;;;;;;5075409;28;20521;-53
2023/12/12 08:28:19;;;;;;;70.47;18.03;;;;;;;;;;5072713;28;20444;-54
2023/12/12 08:30:46;;;;;;;100.77;21.13;;;;;;;;;;5073750;28;20441;-54
2023/12/12 08:33:14;;;;;;;72.73;19.97;;;;;;;;;;5075910;28;20469;-53
2023/12/12 08:35:41;;;;;;;102.30;20.57;;;;;;;;;;5074848;28;20449;-53
2023/12/12 08:38:10;;;;;;;48.20;16.93;;;;;;;;;;5070026;28;21003;-53
2023/12/12 08:40:37;;;;;;;47.83;14.17;;;;;;;;;;5075190;28;21112;-53
2023/12/12 08:43:04;;;;;;;48.70;15.93;;;;;;;;;;5078606;28;20437;-54
2023/12/12 08:45:32;;;;;;;25.83;13.63;;;;;;;;;;5083851;28;20976;-54
2023/12/12 08:48:00;;;;;;;26.00;13.00;;;;;;;;;;5077489;28;20463;-54
2023/12/12 08:50:27;;;;;;;28.10;15.10;;;;;;;;;;5076242;28;20443;-53
2023/12/12 08:52:54;;;;;;;15.63;9.57;;;;;;;;;;5070429;28;20483;-54
2023/12/12 08:55:23;;;;;;;13.40;9.73;;;;;;;;;;5085186;28;20966;-53
2023/12/12 08:57:50;;;;;;;19.83;10.73;;;;;;;;;;5081801;28;20469;-54
2023/12/12 09:00:18;;;;;;;69.60;18.53;;;;;;;;;;5077893;28;20442;-54
2023/12/12 09:02:45;;;;;;;19.67;14.17;;;;;;;;;;5085099;28;20453;-53
2023/12/12 09:05:13;;;;;;;34.80;15.43;;;;;;;;;;5078532;28;20794;-53
2023/12/12 09:07:40;;;;;;;30.03;13.27;;;;;;;;;;5072083;28;20474;-53
2023/12/12 09:10:08;;;;;;;31.67;16.20;;;;;;;;;;5065019;28;20513;-53
2023/12/12 09:12:36;;;;;;;19.50;11.43;;;;;;;;;;5065826;28;20478;-53
2023/12/12 09:15:05;;;;;;;27.50;13.07;;;;;;;;;;5055927;28;20452;-53
2023/12/12 09:17:33;;;;;;;18.03;11.73;;;;;;;;;;5072244;28;20477;-53
2023/12/12 09:20:00;;;;;;;28.17;16.20;;;;;;;;;;5064301;28;20455;-53
2023/12/12 09:22:28;;;;;;;27.07;15.17;;;;;;;;;;5055902;28;20929;-54
2023/12/12 09:24:55;;;;;;;29.53;14.73;;;;;;;;;;5071626;28;20516;-53
2023/12/12 09:27:22;;;;;;;42.00;17.93;;;;;;;;;;5071308;28;20565;-53
2023/12/12 09:29:51;;;;;;;103.07;21.37;;;;;;;;;;5063585;28;20455;-53
2023/12/12 09:32:18;;;;;;;26.70;15.90;;;;;;;;;;5066385;28;20483;-53
2023/12/12 09:34:46;;;;;;;17.70;13.10;;;;;;;;;;5053005;28;20477;-53
2023/12/12 09:37:13;;;;;;;20.40;11.83;;;;;;;;;;5069368;28;20478;-53
2023/12/12 09:39:40;;;;;;;23.23;13.20;;;;;;;;;;5059211;28;20448;-53
2023/12/12 09:42:11;;;;;;;14.07;10.40;;;;;;;;;;5068675;28;20432;-53
2023/12/12 09:44:39;;;;;;;14.40;12.67;;;;;;;;;;5071531;28;20448;-54
2023/12/12 09:47:08;;;;;;;21.00;16.10;;;;;;;;;;5063463;28;20471;-52
2023/12/12 09:49:35;;;;;;;15.60;12.47;;;;;;;;;;5054811;28;20848;-53
2023/12/12 09:52:03;;;;;;;12.10;9.90;;;;;;;;;;5051776;28;20814;-53
2023/12/12 09:54:31;;;;;;;15.60;11.90;;;;;;;;;;5061544;28;20439;-53
2023/12/12 09:56:58;;;;;;;14.33;11.57;;;;;;;;;;5064388;28;20956;-53
2023/12/12 09:59:25;;;;;;;12.10;10.10;;;;;;;;;;5059955;28;20524;-53
2023/12/12 10:01:56;;;;;;;21.77;14.60;;;;;;;;;;5058877;28;20460;-53
2023/12/12 10:04:25;;;;;;;17.00;14.20;;;;;;;;;;5055919;28;20914;-53
2023/12/12 10:06:53;;;;;;;14.00;11.83;;;;;;;;;;5059089;28;20521;-53
2023/12/12 10:09:21;;;;;;;22.13;14.80;;;;;;;;;;5063403;28;20529;-53
2023/12/12 10:11:49;;;;;;;17.67;13.60;;;;;;;;;;5066685;28;20528;-53
2023/12/12 10:14:16;;;;;;;12.13;10.83;;;;;;;;;;5060079;28;20479;-52
2023/12/12 10:16:44;;;;;;;13.13;10.13;;;;;;;;;;5055377;28;20549;-54
2023/12/12 10:19:13;;;;;;;13.03;11.37;;;;;;;;;;5052349;28;20447;-54
2023/12/12 10:21:42;;;;;;;14.20;10.50;;;;;;;;;;5051364;28;20452;-54
2023/12/12 10:24:10;;;;;;;12.53;10.30;;;;;;;;;;5052785;28;20436;-52
2023/12/12 10:26:38;;;;;;;13.83;11.87;;;;;;;;;;5050625;28;20552;-52
2023/12/12 10:29:06;;;;;;;19.17;13.50;;;;;;;;;;5054444;28;20495;-53
2023/12/12 10:31:36;;;;;;;20.23;13.80;;;;;;;;;;5071270;28;20508;-52
2023/12/12 10:34:04;;;;;;;18.80;14.07;;;;;;;;;;5044239;28;20507;-52
2023/12/12 10:36:31;;;;;;;22.90;14.87;;;;;;;;;;5066399;28;20554;-53
2023/12/12 10:39:12;;;;;;;44.00;21.10;;;;;;;;;;5053076;28;20455;-52
2023/12/12 10:41:39;;;;;;;49.83;18.97;;;;;;;;;;5056306;28;20442;-52
2023/12/12 10:44:08;;;;;;;15.93;13.13;;;;;;;;;;5054533;28;20444;-53
2023/12/12 10:46:39;;;;;;;17.13;12.97;;;;;;;;;;5060869;28;20458;-53
2023/12/12 10:49:09;;;;;;;13.60;11.77;;;;;;;;;;5056358;28;20828;-53
2023/12/12 10:51:36;;;;;;;13.43;11.53;;;;;;;;;;5050089;28;20782;-54
2023/12/12 10:54:05;;;;;;;14.63;12.13;;;;;;;;;;5050687;28;20906;-56
2023/12/12 10:56:35;;;;;;;13.87;11.83;;;;;;;;;;5050662;28;20817;-52
2023/12/12 10:59:04;;;;;;;18.03;15.27;;;;;;;;;;5058067;28;20820;-53
2023/12/12 11:01:32;;;;;;;19.63;15.80;;;;;;;;;;5048150;28;20508;-52
2023/12/12 11:04:04;;;;;;;24.20;17.70;;;;;;;;;;5070846;28;20503;-52
2023/12/12 11:06:32;;;;;;;22.63;16.87;;;;;;;;;;5059160;28;21095;-54
2023/12/12 11:09:00;;;;;;;21.13;16.90;;;;;;;;;;5066095;28;20451;-51
2023/12/12 11:11:28;;;;;;;18.40;15.00;;;;;;;;;;5057968;28;20447;-54
2023/12/12 11:14:00;;;;;;;18.50;14.30;;;;;;;;;;5056847;28;20483;-53
2023/12/12 11:16:28;;;;;;;17.00;13.17;;;;;;;;;;5064603;28;20463;-54
2023/12/12 11:18:57;;;;;;;14.37;12.27;;;;;;;;;;5057352;28;20449;-52
2023/12/12 11:21:54;;;;;;;15.67;13.43;;;;;;;;;;5065806;28;20818;-52
2023/12/12 11:24:22;;;;;;;16.20;11.73;;;;;;;;;;4991646;28;20594;-53
2023/12/12 11:26:53;;;;;;;15.90;13.50;;;;;;;;;;5032066;28;21081;-52
2023/12/12 11:29:25;;;;;;;15.47;13.87;;;;;;;;;;5051571;28;20440;-52
2023/12/12 11:32:00;;;;;;;16.10;13.33;;;;;;;;;;5051549;28;20456;-53
2023/12/12 11:34:28;;;;;;;16.10;13.53;;;;;;;;;;5051761;28;21009;-52
2023/12/12 11:36:57;;;;;;;19.67;15.47;;;;;;;;;;5050619;28;20813;-51
2023/12/12 11:39:30;;;;;;;16.70;14.20;;;;;;;;;;5050956;28;20446;-53
2023/12/12 11:41:59;;;;;;;17.80;14.97;;;;;;;;;;5048904;28;20440;-52
2023/12/12 11:44:26;;;;;;;15.23;12.80;;;;;;;;;;5063038;28;20485;-53
2023/12/12 11:46:54;;;;;;;16.57;13.30;;;;;;;;;;5070397;28;20464;-52
2023/12/12 11:49:22;;;;;;;14.10;12.33;;;;;;;;;;5067572;28;20460;-53
2023/12/12 11:51:51;;;;;;;12.80;11.03;;;;;;;;;;5061974;28;20530;-54
2023/12/12 11:54:22;;;;;;;19.67;14.10;;;;;;;;;;5061858;28;20489;-53
2023/12/12 11:56:50;;;;;;;17.70;15.50;;;;;;;;;;5068900;28;20539;-52
2023/12/12 11:59:25;;;;;;;22.90;17.17;;;;;;;;;;5067086;28;20451;-52
2023/12/12 12:01:53;;;;;;;18.60;14.77;;;;;;;;;;5070111;28;20465;-55
2023/12/12 12:04:21;;;;;;;20.03;16.33;;;;;;;;;;5067815;28;20446;-52
2023/12/12 12:06:48;;;;;;;20.70;16.13;;;;;;;;;;5050240;28;20474;-52
2023/12/12 12:09:16;;;;;;;19.40;16.23;;;;;;;;;;5048422;28;20454;-52
2023/12/12 12:11:45;;;;;;;16.77;15.07;;;;;;;;;;5060186;28;20942;-54
2023/12/12 12:14:13;;;;;;;18.50;15.13;;;;;;;;;;5066740;28;20541;-53
2023/12/12 12:16:42;;;;;;;17.87;15.13;;;;;;;;;;5067554;28;20567;-55
2023/12/12 12:19:28;;;;;;;14.67;12.97;;;;;;;;;;5064386;28;20945;-52
2023/12/12 12:21:56;;;;;;;18.80;14.87;;;;;;;;;;5067834;28;20453;-54
2023/12/12 12:24:23;;;;;;;29.77;24.00;;;;;;;;;;5050129;28;20510;-53
2023/12/12 12:26:50;;;;;;;22.50;20.10;;;;;;;;;;5059217;28;20470;-52
2023/12/12 12:29:18;;;;;;;15.93;13.30;;;;;;;;;;5059882;28;20452;-55
2023/12/12 12:31:46;;;;;;;13.57;11.60;;;;;;;;;;5065280;28;20451;-52
2023/12/12 12:34:18;;;;;;;16.13;14.50;;;;;;;;;;5065920;28;20483;-52
2023/12/12 12:36:46;;;;;;;20.10;13.17;;;;;;;;;;5061712;28;20554;-53
2023/12/12 12:39:14;;;;;;;18.70;14.17;;;;;;;;;;5069358;28;20530;-53
2023/12/12 12:41:43;;;;;;;15.17;12.63;;;;;;;;;;5061916;28;20452;-52
2023/12/12 12:44:11;;;;;;;14.60;12.43;;;;;;;;;;5069804;28;20467;-52
2023/12/12 12:46:39;;;;;;;15.57;13.87;;;;;;;;;;5067089;28;20558;-53
2023/12/12 12:49:07;;;;;;;14.90;13.30;;;;;;;;;;5068245;28;20459;-52
2023/12/12 12:51:35;;;;;;;16.53;13.90;;;;;;;;;;5073705;28;20451;-52
2023/12/12 12:54:02;;;;;;;16.47;13.47;;;;;;;;;;5073163;28;21007;-53
2023/12/12 12:56:29;;;;;;;15.70;14.10;;;;;;;;;;5056510;28;20470;-52
2023/12/12 12:58:57;;;;;;;17.30;15.47;;;;;;;;;;5062558;28;20942;-54
2023/12/12 13:01:24;;;;;;;19.43;16.03;;;;;;;;;;5068214;28;20448;-52
2023/12/12 13:03:51;;;;;;;16.87;13.57;;;;;;;;;;5054903;28;20444;-54
2023/12/12 13:06:20;;;;;;;19.53;15.00;;;;;;;;;;5053876;28;20472;-52
2023/12/12 13:08:47;;;;;;;16.70;14.80;;;;;;;;;;5052811;28;20452;-52
2023/12/12 13:11:15;;;;;;;14.17;12.67;;;;;;;;;;5052085;28;20514;-52
2023/12/12 13:13:43;;;;;;;14.20;12.47;;;;;;;;;;5050300;28;20492;-56
2023/12/12 13:16:10;;;;;;;11.77;10.17;;;;;;;;;;5046571;28;20472;-53
2023/12/12 13:18:38;;;;;;;12.00;10.27;;;;;;;;;;5064890;28;20445;-51
2023/12/12 13:21:05;;;;;;;14.37;10.20;;;;;;;;;;5052888;28;20820;-53
2023/12/12 13:23:34;;;;;;;14.37;12.87;;;;;;;;;;5056087;28;20447;-53
2023/12/12 13:26:01;;;;;;;16.33;11.90;;;;;;;;;;5062899;28;20515;-55
2023/12/12 13:28:29;;;;;;;13.37;11.93;;;;;;;;;;5059032;28;20444;-54
2023/12/12 13:30:56;;;;;;;13.33;11.93;;;;;;;;;;5059830;28;20448;-53
2023/12/12 13:33:23;;;;;;;13.43;11.67;;;;;;;;;;5061517;28;20541;-53
2023/12/12 13:35:51;;;;;;;14.40;13.00;;;;;;;;;;5059118;28;20456;-52
2023/12/12 13:38:18;;;;;;;15.50;14.00;;;;;;;;;;5053026;28;20807;-53
2023/12/12 13:40:47;;;;;;;15.33;12.27;;;;;;;;;;5060867;28;20975;-53
2023/12/12 13:43:14;;;;;;;12.80;11.60;;;;;;;;;;5062570;28;20985;-52
2023/12/12 13:45:42;;;;;;;13.90;11.23;;;;;;;;;;5064243;28;20443;-53
2023/12/12 13:48:09;;;;;;;13.20;11.60;;;;;;;;;;5058548;28;20477;-53
2023/12/12 13:50:37;;;;;;;14.97;12.10;;;;;;;;;;5056537;28;20463;-52
2023/12/12 13:53:04;;;;;;;14.07;12.53;;;;;;;;;;5057908;28;20441;-54
2023/12/12 13:55:31;;;;;;;17.30;13.77;;;;;;;;;;5060238;28;20954;-50
2023/12/12 13:58:00;;;;;;;16.20;12.63;;;;;;;;;;5042423;22;20505;-52
2023/12/12 14:00:27;;;;;;;14.50;12.03;;;;;;;;;;5030241;28;20519;-52
2023/12/12 14:02:55;;;;;;;14.03;12.57;;;;;;;;;;5031360;28;20438;-52
2023/12/12 14:05:22;;;;;;;12.50;11.30;;;;;;;;;;5031293;28;20445;-53
2023/12/12 14:07:49;;;;;;;11.63;10.43;;;;;;;;;;5014929;28;20462;-52
2023/12/12 14:10:17;;;;;;;11.53;10.20;;;;;;;;;;5001723;28;20452;-55
2023/12/12 14:12:44;;;;;;;11.70;10.50;;;;;;;;;;5011062;28;20668;-53
2023/12/12 14:15:13;;;;;;;14.43;12.27;;;;;;;;;;5005836;28;20490;-52
2023/12/12 14:17:41;;;;;;;14.67;12.20;;;;;;;;;;5011324;28;20462;-52
2023/12/12 14:20:09;;;;;;;13.90;12.40;;;;;;;;;;5010494;28;20500;-52
2023/12/12 14:22:36;;;;;;;13.70;12.40;;;;;;;;;;4999727;28;20448;-52
2023/12/12 14:25:05;;;;;;;14.93;13.50;;;;;;;;;;4999806;28;20449;-52
2023/12/12 14:27:32;;;;;;;16.20;14.00;;;;;;;;;;5003319;28;20565;-53
2023/12/12 14:30:00;;;;;;;17.30;14.00;;;;;;;;;;5010009;28;20464;-53
2023/12/12 14:32:29;;;;;;;15.10;12.37;;;;;;;;;;5000477;28;20446;-52
2023/12/12 14:34:56;;;;;;;15.23;11.93;;;;;;;;;;4994907;28;20483;-53
2023/12/12 14:37:23;;;;;;;13.00;11.30;;;;;;;;;;4995539;28;20878;-52
2023/12/12 14:39:51;;;;;;;13.87;12.47;;;;;;;;;;5010425;28;20448;-53